Orange City, Florida
Current Conditions -  °F | °C
As of 11:53 AM on Thursday 18 Dec 2014 (Local Time) from KSFB Reporting Station
Clear Clear  
Wind Chill: 66°   Ceiling: Unl
Heat Index: 66°   Visibility: 10mi
Dew Point: 46°   Wind: 7mph
Humidity: 48%   Direction: 340°NNW
Pressure: 30.18"   Gusts: NA
Location:  28.95°N, 81.3°W
Report Text: KSFB 181653Z 34006KT 10SM CLR 19/08 A3018 RMK AO2 SLP220 T01890078
Loading
Personal Weather Stations






























Interactive Weather Map New forecast layout! Learn more

10-Day Weather Forecast

Advertisements
Track Severe Weather on mobile